Metar Cercanos

 

LEPA - Palma De Mallorc, Spain
Distance from station: ONO 38km
Actualización: 10/12/2018 19:30
Muy nuboso
Muy nuboso
 Viento del varies
Viento: varies 4 km/h
Temperatura: 14°C
Rocío: 13°C
Humedad: 94%
Barómetro: 1027 hPa
Clouds: Muy nuboso
Visibility: 10 km
Cloud details: Few Clouds 488 m
Muy nuboso 579 m
2018/12/10 18:30 LEPA 101830Z VRB02KT 9999 FEW016 BKN019 14/13 Q1027 NOSIG
LEMH - Mahon/Menorca Is, Spain
Distance from station: ENE 105km
Actualización: 10/12/2018 19:30
Parcialmente nuboso
Parcialmente nuboso
 Viento del N
Viento: N 20 km/h
Temperatura: 12°C
Rocío: 9°C
Humedad: 82%
Barómetro: 1027 hPa
Clouds: Parcialmente nuboso
Visibility: 10 km
Cloud details: Parcialmente nuboso 610 m
2018/12/10 18:30 LEMH 101830Z 01011KT 9999 SCT020 12/09 Q1027
 
LEIB - Ibiza/Es Codola, Spain
Distance from station: OSO 165km
Actualización: 10/12/2018 19:30
Parcialmente nuboso
Parcialmente nuboso
 Viento del SE
Viento: SE 6 km/h
Temperatura: 14°C
Rocío: 12°C
Humedad: 88%
Barómetro: 1027 hPa
Clouds: Parcialmente nuboso
Visibility: 10 km
Cloud details: Parcialmente nuboso 549 m
2018/12/10 18:30 LEIB 101830Z 13003KT 080V160 9999 SCT018 14/12 Q1027 NOSIG
LEBL - Barcelona Airpor, Spain
Distance from station: NNO 225km
Actualización: 10/12/2018 19:30
Despejado
Despejado
 Viento del NNO
Viento: NNO 9 km/h
Temperatura: 10°C
Sensación frio: 9°C
Rocío: 7°C
Humedad: 82%
Barómetro: 1027 hPa
Resumen: Despejado
Visibility: greater than 10 km
2018/12/10 18:30 LEBL 101830Z 33005KT 260V010 CAVOK 10/07 Q1027 NOSIG
 
LEVC - Valencia (civ/Mi, Spain
Distance from station: NO 188km
Actualización: 10/12/2018 19:30
Despejado
Despejado
 Viento del NO
Viento: NO 6 km/h
Temperatura: 11°C
Rocío: 9°C
Humedad: 88%
Barómetro: 1027 hPa
Resumen: Despejado
Visibility: greater than 10 km
2018/12/10 18:30 LEVC 101830Z 31003KT CAVOK 11/09 Q1027 NOSIG
LEGE - Gerona/Costa Bra, Spain
Distance from station: N 276km
Actualización: 10/12/2018 19:30
Despejado
Despejado
 Viento del varies
Viento: varies 2 km/h
Temperatura: 8°C
Rocío: 7°C
Humedad: 93%
Barómetro: 1027 hPa
Resumen: Despejado
Visibility: greater than 10 km
2018/12/10 18:30 LEGE 101830Z VRB01KT CAVOK 08/07 Q1027
 
LEAL - Alicante/El Alte, Spain
Distance from station: OSO 344km
Actualización: 10/12/2018 19:30
Despejado
Despejado
 Viento del varies
Viento: varies 4 km/h
Temperatura: 15°C
Rocío: 10°C
Humedad: 72%
Barómetro: 1027 hPa
Resumen: Despejado
Visibility: greater than 10 km
2018/12/10 18:30 LEAL 101830Z VRB02KT CAVOK 15/10 Q1027 NOSIG
LEAM - Almeria Airport, Spain
Distance from station: SSO 56km
Actualización: 10/12/2018 19:30
Despejado
Despejado
 Viento del NE
Viento: NE 15 km/h
Temperatura: 15°C
Rocío: 12°C
Humedad: 82%
Barómetro: 1025 hPa
Resumen: Despejado
Visibility: greater than 10 km
2018/12/10 18:30 LEAM 101830Z 05008KT CAVOK 15/12 Q1025
 
LEZG - Zaragoza (mil/Ci, Spain
Distance from station: NO 431km
Actualización: 10/12/2018 19:30
Despejado
Despejado
 Viento del O
Viento: O 24 km/h
Temperatura: 11°C
Rocío: 5°C
Humedad: 67%
Barómetro: 1027 hPa
Resumen: Despejado
Visibility: greater than 10 km
2018/12/10 18:30 LEZG 101830Z 27013KT CAVOK 11/05 Q1027
LEMD - Madrid/Barajas, Spain
Distance from station: ONO 234km
Actualización: 10/12/2018 19:30
Despejado
Despejado
 Viento del calm
Viento: Calma
Temperatura: 8°C
Rocío: 2°C
Humedad: 66%
Barómetro: 1027 hPa
Resumen: Despejado
Visibility: greater than 10 km
2018/12/10 18:30 LEMD 101830Z 00000KT CAVOK 08/02 Q1027 NOSIG
 
LEGR - Granada Airport, Spain
Distance from station: OSO 62km
Actualización: 10/12/2018 19:30
Despejado
Despejado
 Viento del calm
Viento: Calma
Temperatura: 11°C
Rocío: 8°C
Humedad: 82%
Barómetro: 1025 hPa
Resumen: Despejado
Visibility: greater than 10 km
2018/12/10 18:30 LEGR 101830Z 00000KT CAVOK 11/08 Q1025
LEMG - Malaga (civ/Mil), Spain
Distance from station: OSO 227km
Actualización: 10/12/2018 19:30
Despejado
Despejado
 Viento del SSO
Viento: SSO 4 km/h
Temperatura: 14°C
Rocío: 10°C
Humedad: 77%
Barómetro: 1026 hPa
Resumen: Despejado
Visibility: greater than 10 km
2018/12/10 18:30 LEMG 101830Z 21002KT CAVOK 14/10 Q1026 NOSIG
 
LEZL - Sevilla (civ/Mil, Spain
Distance from station: S 318km
Actualización: 10/12/2018 19:30
Despejado
Despejado
 Viento del varies
Viento: varies 2 km/h
Temperatura: 17°C
Rocío: 8°C
Humedad: 56%
Barómetro: 1023 hPa
Resumen: Despejado
Visibility: greater than 10 km
2018/12/10 18:30 LEZL 101830Z VRB01KT CAVOK 17/08 Q1023 NOSIG
LEVT - Vitoria, Spain
Distance from station: NO 226km
Actualización: 10/12/2018 19:30
Despejado
Despejado
 Viento del varies
Viento: varies 2 km/h
Temperatura: 4°C
Rocío: 3°C
Humedad: 93%
Barómetro: 1029 hPa
Resumen: Despejado
Visibility: greater than 10 km
2018/12/10 18:30 LEVT 101830Z VRB01KT CAVOK 04/03 Q1029
 
LEBB - Bilbao/Sondica, Spain
Distance from station: NNO 235km
Actualización: 10/12/2018 19:30
Few Clouds
Few Clouds
 Viento del ESE
Viento: ESE 6 km/h
Temperatura: 8°C
Rocío: 7°C
Humedad: 93%
Barómetro: 1030 hPa
Clouds: Few Clouds
Visibility: 10 km
Cloud details: Few Clouds 1067 m
2018/12/10 18:30 LEBB 101830Z 11003KT 9999 FEW035 08/07 Q1030 NOSIG
LESO - San Sebastian/Fu, Spain
Distance from station: N 231km
Actualización: 10/12/2018 19:30
Muy nuboso
Muy nuboso
 Viento del varies
Viento: varies 4 km/h
Temperatura: 11°C
Rocío: 8°C
Humedad: 82%
Barómetro: 1030 hPa
Clouds: Muy nuboso
Visibility: 10 km
Cloud details: Few Clouds 975 m
Muy nuboso 1311 m
2018/12/10 18:30 LESO 101830Z VRB02KT 9999 FEW032 BKN043 11/08 Q1030
 
LEVD - Valladolid(Mil/C, Spain
Distance from station: ONO 239km
Actualización: 10/12/2018 19:30
Despejado
Despejado
 Viento del NNE
Viento: NNE 13 km/h
Temperatura: 4°C
Sensación frio: 1°C
Rocío: 3°C
Humedad: 93%
Barómetro: 1028 hPa
Resumen: Despejado
Visibility: greater than 10 km
2018/12/10 18:30 LEVD 101830Z 02007KT CAVOK 04/03 Q1028
LESA - Salamanca (civ/M, Spain
Distance from station: ONO 349km
Actualización: 10/12/2018 19:30
Despejado
Despejado
 Viento del E
Viento: E 4 km/h
Temperatura: 6°C
Rocío: 4°C
Humedad: 87%
Barómetro: 1028 hPa
Clouds: Despejado
Visibility: 8 km
2018/12/10 18:30 LESA 101830Z AUTO 09002KT 8000 NCD 06/04 Q1028
 
LEXJ - Santander/Paraya, Spain
Distance from station: NNO 247km
Actualización: 10/12/2018 19:30
Despejado
Despejado
 Viento del E
Viento: E 7 km/h
Temperatura: 11°C
Rocío: 9°C
Humedad: 88%
Barómetro: 1029 hPa
Resumen: Despejado
Visibility: greater than 10 km
2018/12/10 18:30 LEXJ 101830Z 09004KT CAVOK 11/09 Q1029
LEAS - Asturias/Aviles, Spain
Distance from station: NO 214km
Actualización: 10/12/2018 19:30
Parcialmente nuboso
Parcialmente nuboso
 Viento del SE
Viento: SE 6 km/h
Temperatura: 10°C
Rocío: 8°C
Humedad: 88%
Barómetro: 1028 hPa
Clouds: Parcialmente nuboso
Visibility: 9 km
2018/12/10 18:30 LEAS 101830Z 14003KT 090V160 9000 NSC 10/08 Q1028 NOSIG
 
LECO - La Coruna/Alvedr, Spain
Distance from station: ONO 222km
Actualización: 10/12/2018 19:30
Despejado
Despejado
 Viento del S
Viento: S 9 km/h
Temperatura: 11°C
Rocío: 8°C
Humedad: 82%
Barómetro: 1025 hPa
Resumen: Despejado
Visibility: greater than 10 km
2018/12/10 18:30 LECO 101830Z 18005KT CAVOK 11/08 Q1025 NOSIG
LEVX - Vigo/Peinador, Spain
Distance from station: O 214km
Actualización: 10/12/2018 19:30
Despejado
Despejado
 Viento del SO
Viento: SO 9 km/h
Temperatura: 12°C
Rocío: 7°C
Humedad: 72%
Barómetro: 1025 hPa
Resumen: Despejado
Visibility: greater than 10 km
2018/12/10 18:30 LEVX 101830Z 23005KT 200V260 CAVOK 12/07 Q1025 NOSIG